createdAt,value
2023-04-27T00:00:49.502Z,52.20
2023-04-27T00:03:52.212Z,46.50
2023-04-27T00:06:54.182Z,44.20
2023-04-27T00:09:56.257Z,47.00
2023-04-27T00:12:58.484Z,46.80
2023-04-27T00:16:01.267Z,45.70
2023-04-27T00:19:03.268Z,46.80
2023-04-27T00:22:05.025Z,47.30
2023-04-27T00:25:07.480Z,46.60
2023-04-27T00:28:10.173Z,44.60
2023-04-27T00:34:13.598Z,43.90
2023-04-27T00:40:17.669Z,46.30
2023-04-27T00:46:20.918Z,47.50
2023-04-27T00:52:24.290Z,42.70
2023-04-27T00:55:26.110Z,41.50
2023-04-27T00:58:28.041Z,39.00
2023-04-27T01:01:30.665Z,48.30
2023-04-27T01:04:32.610Z,38.30
2023-04-27T01:07:38.169Z,42.20
2023-04-27T01:10:40.505Z,42.40
2023-04-27T01:13:42.262Z,40.80
2023-04-27T01:16:44.150Z,43.30
2023-04-27T01:22:47.495Z,38.90
2023-04-27T01:28:50.740Z,42.00
2023-04-27T01:34:54.023Z,39.00
2023-04-27T01:37:57.168Z,47.00
2023-04-27T01:40:58.789Z,41.90
2023-04-27T01:44:00.591Z,45.30
2023-04-27T01:50:04.774Z,46.50
2023-04-27T01:53:06.582Z,42.00
2023-04-27T01:59:10.050Z,42.80
2023-04-27T02:02:11.642Z,42.70
2023-04-27T02:08:15.190Z,45.10
2023-04-27T02:11:16.840Z,44.60
2023-04-27T02:17:20.296Z,47.50
2023-04-27T02:23:23.429Z,45.80
2023-04-27T02:29:30.609Z,44.80
2023-04-27T02:32:33.120Z,44.90
2023-04-27T02:35:34.856Z,51.30
2023-04-27T02:38:36.683Z,50.30
2023-04-27T02:41:38.702Z,51.20
2023-04-27T02:44:40.528Z,50.30
2023-04-27T02:53:46.384Z,55.30
2023-04-27T02:56:48.269Z,62.50
2023-04-27T03:02:51.712Z,67.50
2023-04-27T03:05:53.595Z,62.00
2023-04-27T03:08:55.236Z,59.90
2023-04-27T03:14:58.448Z,55.00
2023-04-27T03:21:08.974Z,56.20
2023-04-27T03:24:10.749Z,57.40
2023-04-27T03:27:12.369Z,57.00
2023-04-27T03:33:15.821Z,54.30
2023-04-27T03:36:20.542Z,56.50
2023-04-27T03:39:22.649Z,55.30
2023-04-27T03:42:24.306Z,62.20
2023-04-27T03:45:29.221Z,50.60
2023-04-27T03:48:31.031Z,52.60
2023-04-27T03:51:32.862Z,49.50
2023-04-27T03:57:36.109Z,74.90
2023-04-27T04:03:39.761Z,649.40
2023-04-27T04:06:41.641Z,452.70
2023-04-27T04:09:46.718Z,139.80
2023-04-27T04:15:50.307Z,125.10
2023-04-27T04:21:53.537Z,98.20
2023-04-27T04:24:55.178Z,112.80
2023-04-27T04:27:56.806Z,101.90
2023-04-27T04:34:01.415Z,85.00
2023-04-27T04:37:03.146Z,70.90
2023-04-27T04:43:07.238Z,60.90
2023-04-27T04:46:08.982Z,56.10
2023-04-27T04:52:12.863Z,60.20
2023-04-27T04:58:16.246Z,52.80
2023-04-27T05:04:19.730Z,55.00
2023-04-27T05:07:24.637Z,58.90
2023-04-27T05:10:26.815Z,54.20
2023-04-27T05:13:28.757Z,50.40
2023-04-27T05:16:30.734Z,53.20
2023-04-27T05:19:32.468Z,46.00
2023-04-27T05:22:34.147Z,51.50
2023-04-27T05:28:38.197Z,50.60
2023-04-27T05:31:39.884Z,51.30
2023-04-27T05:34:41.562Z,42.90
2023-04-27T05:37:46.271Z,43.70
2023-04-27T05:40:47.959Z,46.60
2023-04-27T05:43:49.874Z,43.40
2023-04-27T05:46:51.485Z,39.00
2023-04-27T05:49:53.216Z,39.40
2023-04-27T05:52:54.862Z,38.50
2023-04-27T05:55:57.088Z,37.80
2023-04-27T05:58:59.993Z,37.10
2023-04-27T06:02:03.633Z,38.00
2023-04-27T06:05:05.722Z,35.60
2023-04-27T06:08:07.503Z,38.30
2023-04-27T06:11:09.139Z,36.90
2023-04-27T06:14:10.844Z,36.10
2023-04-27T06:17:12.410Z,34.40
2023-04-27T06:20:14.085Z,36.80
2023-04-27T06:23:15.662Z,35.40
2023-04-27T06:26:17.348Z,36.50
2023-04-27T06:29:18.911Z,35.10
2023-04-27T06:32:20.657Z,38.90
2023-04-27T06:35:22.457Z,37.70
2023-04-27T06:38:24.165Z,37.90
2023-04-27T06:41:27.065Z,34.90
2023-04-27T06:44:28.705Z,35.70
2023-04-27T06:47:30.506Z,37.50
2023-04-27T06:50:32.089Z,36.00
2023-04-27T06:53:34.075Z,34.40
2023-04-27T06:56:36.121Z,37.30
2023-04-27T06:59:37.904Z,36.60
2023-04-27T07:02:39.601Z,31.90
2023-04-27T07:05:41.469Z,32.50
2023-04-27T07:08:43.334Z,32.10
2023-04-27T07:11:45.122Z,33.50
2023-04-27T07:14:46.694Z,28.40
2023-04-27T07:17:48.547Z,30.70
2023-04-27T07:20:50.219Z,31.00
2023-04-27T07:23:53.459Z,23.00
2023-04-27T07:26:55.803Z,24.80
2023-04-27T07:29:57.501Z,25.00
2023-04-27T07:32:59.107Z,26.00
2023-04-27T07:36:01.726Z,28.20
2023-04-27T07:39:04.084Z,22.70
2023-04-27T07:42:05.742Z,25.70
2023-04-27T07:45:08.979Z,23.40
2023-04-27T07:48:10.626Z,22.90
2023-04-27T07:51:12.232Z,21.60
2023-04-27T07:54:13.940Z,20.60
2023-04-27T07:57:15.603Z,26.80
2023-04-27T08:00:17.464Z,22.80
2023-04-27T08:03:19.596Z,25.90
2023-04-27T08:06:22.099Z,26.00
2023-04-27T08:09:24.148Z,24.00
2023-04-27T08:12:25.789Z,28.10
2023-04-27T08:15:27.643Z,27.80
2023-04-27T08:18:29.571Z,27.00
2023-04-27T08:21:31.298Z,28.30
2023-04-27T08:24:33.036Z,29.40
2023-04-27T08:27:39.081Z,28.20
2023-04-27T08:30:43.822Z,30.20
2023-04-27T08:33:45.700Z,35.30
2023-04-27T08:36:47.326Z,34.80
2023-04-27T08:39:48.944Z,36.80
2023-04-27T08:42:58.517Z,28.10
2023-04-27T08:46:00.198Z,26.20
2023-04-27T08:49:02.201Z,35.00
2023-04-27T08:52:04.780Z,28.50
2023-04-27T08:55:07.590Z,32.30
2023-04-27T08:58:09.546Z,27.30
2023-04-27T09:01:11.431Z,29.00
2023-04-27T09:04:13.394Z,27.50
2023-04-27T09:07:17.345Z,25.20
2023-04-27T09:10:19.169Z,30.50
2023-04-27T09:13:20.919Z,27.30
2023-04-27T09:16:27.207Z,25.70
2023-04-27T09:19:30.564Z,30.00
2023-04-27T09:22:32.311Z,25.50
2023-04-27T09:25:34.271Z,24.40
2023-04-27T09:28:39.164Z,26.00
2023-04-27T09:31:41.060Z,30.00
2023-04-27T09:34:43.125Z,23.60
2023-04-27T09:37:44.893Z,23.90
2023-04-27T09:40:47.480Z,23.60
2023-04-27T09:43:49.175Z,23.00
2023-04-27T09:46:51.747Z,26.10
2023-04-27T09:49:53.505Z,24.20
2023-04-27T09:52:55.136Z,22.60
2023-04-27T09:56:13.712Z,20.60
2023-04-27T09:59:49.123Z,21.30
2023-04-27T10:03:09.257Z,19.30
2023-04-27T10:06:45.298Z,22.00
2023-04-27T10:09:49.040Z,23.40
2023-04-27T10:12:58.498Z,22.80
2023-04-27T10:16:15.264Z,20.10
2023-04-27T10:19:17.044Z,21.70
2023-04-27T10:22:18.712Z,21.80
2023-04-27T10:25:25.303Z,19.70
2023-04-27T10:28:26.911Z,21.20
2023-04-27T10:31:29.181Z,21.90
2023-04-27T10:34:34.971Z,19.00
2023-04-27T10:37:40.828Z,20.90
2023-04-27T10:40:44.715Z,18.00
2023-04-27T10:43:46.334Z,18.90
2023-04-27T10:46:55.526Z,16.20
2023-04-27T10:49:57.424Z,18.00
2023-04-27T10:53:06.844Z,18.50
2023-04-27T10:56:08.722Z,21.30
2023-04-27T10:59:10.787Z,23.40
2023-04-27T11:02:12.730Z,22.70
2023-04-27T11:05:19.497Z,26.50
2023-04-27T11:08:21.137Z,21.60
2023-04-27T11:11:23.178Z,26.70
2023-04-27T11:14:24.829Z,23.80
2023-04-27T11:17:30.189Z,20.20
2023-04-27T11:20:31.907Z,23.20
2023-04-27T11:23:33.867Z,26.10
2023-04-27T11:26:35.794Z,21.90
2023-04-27T11:29:38.568Z,20.20
2023-04-27T11:32:40.347Z,17.90
2023-04-27T11:35:42.090Z,21.00
2023-04-27T11:38:43.741Z,19.20
2023-04-27T11:41:45.504Z,23.30
2023-04-27T11:44:52.232Z,18.90
2023-04-27T11:47:54.058Z,16.50
2023-04-27T11:50:58.205Z,14.00
2023-04-27T11:54:06.793Z,55.20
2023-04-27T11:57:10.183Z,21.30
2023-04-27T12:00:12.153Z,21.90
2023-04-27T12:03:14.248Z,20.60
2023-04-27T12:06:32.148Z,24.20
2023-04-27T12:09:34.948Z,22.90
2023-04-27T12:12:36.646Z,20.80
2023-04-27T12:15:39.026Z,24.90
2023-04-27T12:18:41.323Z,29.70
2023-04-27T12:21:43.248Z,21.30
2023-04-27T12:24:44.889Z,19.00
2023-04-27T12:27:46.934Z,22.00
2023-04-27T12:30:48.585Z,22.40
2023-04-27T12:33:50.478Z,20.40
2023-04-27T12:36:52.365Z,26.20
2023-04-27T12:39:54.120Z,24.10
2023-04-27T12:42:55.735Z,21.70
2023-04-27T12:45:57.491Z,22.30
2023-04-27T12:48:59.261Z,22.80
2023-04-27T12:52:01.053Z,22.70
2023-04-27T12:55:02.803Z,26.10
2023-04-27T12:58:04.447Z,20.60
2023-04-27T13:01:06.041Z,22.30
2023-04-27T13:04:07.886Z,23.10
2023-04-27T13:07:09.867Z,26.40
2023-04-27T13:10:11.564Z,22.70
2023-04-27T13:13:13.293Z,23.00
2023-04-27T13:16:14.991Z,21.20
2023-04-27T13:19:16.659Z,19.20
2023-04-27T13:22:18.404Z,19.60
2023-04-27T13:25:20.013Z,22.90
2023-04-27T13:28:21.682Z,22.60
2023-04-27T13:31:23.422Z,39.00
2023-04-27T13:34:25.083Z,22.10
2023-04-27T13:37:26.682Z,22.90
2023-04-27T13:40:29.380Z,19.90
2023-04-27T13:43:31.191Z,19.30
2023-04-27T13:46:32.838Z,19.60
2023-04-27T13:49:34.743Z,23.40
2023-04-27T13:52:37.696Z,24.30
2023-04-27T13:55:39.386Z,24.00
2023-04-27T13:58:41.133Z,22.50
2023-04-27T14:01:42.841Z,20.50
2023-04-27T14:04:44.587Z,18.50
2023-04-27T14:07:46.193Z,24.40
2023-04-27T14:10:48.341Z,21.20
2023-04-27T14:13:50.044Z,25.60
2023-04-27T14:16:53.030Z,25.10
2023-04-27T14:19:54.735Z,22.20
2023-04-27T14:22:58.390Z,22.30
2023-04-27T14:26:00.688Z,24.70
2023-04-27T14:29:02.326Z,23.10
2023-04-27T14:32:04.199Z,18.60
2023-04-27T14:35:06.314Z,19.60
2023-04-27T14:38:08.216Z,25.20
2023-04-27T14:41:09.871Z,28.80
2023-04-27T14:44:11.520Z,24.00
2023-04-27T14:47:13.242Z,24.80
2023-04-27T14:50:15.031Z,20.50
2023-04-27T14:53:16.700Z,23.80
2023-04-27T14:56:18.521Z,17.90
2023-04-27T14:59:20.174Z,21.50
2023-04-27T15:02:21.824Z,20.20
2023-04-27T15:05:23.414Z,23.20
2023-04-27T15:08:25.110Z,23.90
2023-04-27T15:11:26.777Z,21.90
2023-04-27T15:14:28.626Z,40.30
2023-04-27T15:17:30.371Z,23.40
2023-04-27T15:20:32.011Z,24.20
2023-04-27T15:23:33.714Z,19.60
2023-04-27T15:26:35.382Z,21.20
2023-04-27T15:29:37.470Z,26.60
2023-04-27T15:32:39.267Z,28.10
2023-04-27T15:35:41.026Z,26.50
2023-04-27T15:38:42.644Z,20.00
2023-04-27T15:41:44.329Z,21.90
2023-04-27T15:44:46.031Z,23.90
2023-04-27T15:47:47.902Z,22.50
2023-04-27T15:50:49.652Z,31.40
2023-04-27T15:53:51.417Z,22.60
2023-04-27T15:56:53.055Z,23.90
2023-04-27T15:59:54.746Z,24.90
2023-04-27T16:02:56.592Z,33.80
2023-04-27T16:05:58.442Z,28.20
2023-04-27T16:09:00.871Z,25.90
2023-04-27T16:12:02.626Z,31.00
2023-04-27T16:15:04.650Z,27.50
2023-04-27T16:18:06.310Z,30.30
2023-04-27T16:21:08.048Z,24.20
2023-04-27T16:24:09.705Z,26.00
2023-04-27T16:27:11.507Z,27.70
2023-04-27T16:30:13.383Z,23.60
2023-04-27T16:33:15.563Z,30.00
2023-04-27T16:36:17.231Z,29.60
2023-04-27T16:39:18.847Z,23.70
2023-04-27T16:42:20.771Z,28.30
2023-04-27T16:45:22.448Z,25.30
2023-04-27T16:48:24.101Z,23.20
2023-04-27T16:51:25.699Z,21.80
2023-04-27T16:54:27.313Z,20.70
2023-04-27T16:57:28.997Z,21.50
2023-04-27T17:00:30.617Z,24.10
2023-04-27T17:03:32.306Z,19.40
2023-04-27T17:06:34.022Z,17.80
2023-04-27T17:09:35.837Z,20.00
2023-04-27T17:12:37.961Z,21.40
2023-04-27T17:15:39.697Z,17.00
2023-04-27T17:18:41.879Z,20.80
2023-04-27T17:21:43.659Z,18.70
2023-04-27T17:24:45.276Z,19.40
2023-04-27T17:27:46.959Z,18.40
2023-04-27T17:30:48.828Z,24.50
2023-04-27T17:33:50.480Z,23.20
2023-04-27T17:36:52.194Z,25.00
2023-04-27T17:39:53.784Z,21.20
2023-04-27T17:42:55.470Z,22.20
2023-04-27T17:48:58.724Z,22.30
2023-04-27T17:52:00.329Z,29.10
2023-04-27T18:01:07.068Z,23.30
2023-04-27T18:04:08.863Z,25.10
2023-04-27T18:07:10.573Z,22.90
2023-04-27T18:13:14.020Z,26.50
2023-04-27T18:16:15.671Z,25.70
2023-04-27T18:22:19.472Z,40.40
2023-04-27T18:25:21.301Z,43.10
2023-04-27T18:28:22.959Z,44.60
2023-04-27T18:34:26.168Z,40.20
2023-04-27T18:37:28.416Z,41.40
2023-04-27T18:40:30.536Z,41.60
2023-04-27T18:43:34.640Z,41.00
2023-04-27T18:46:36.284Z,43.40
2023-04-27T18:52:39.701Z,55.10
2023-04-27T18:55:41.452Z,48.80
2023-04-27T19:01:44.777Z,36.50
2023-04-27T19:04:56.866Z,41.30
2023-04-27T19:08:03.708Z,41.70
2023-04-27T19:14:07.127Z,33.40
2023-04-27T19:23:12.661Z,39.70
2023-04-27T19:26:14.578Z,38.00
2023-04-27T19:29:16.724Z,53.60
2023-04-27T19:32:19.284Z,36.60
2023-04-27T19:35:21.103Z,42.90
2023-04-27T19:38:22.866Z,44.70
2023-04-27T19:44:26.133Z,60.50
2023-04-27T19:47:27.737Z,54.50
2023-04-27T19:53:31.099Z,149.50
2023-04-27T19:59:34.338Z,73.00
2023-04-27T20:02:36.162Z,64.40
2023-04-27T20:05:38.476Z,56.40
2023-04-27T20:08:40.283Z,37.90
2023-04-27T20:11:42.015Z,49.80
2023-04-27T20:17:45.305Z,42.60
2023-04-27T20:23:48.785Z,43.60
2023-04-27T20:26:50.603Z,45.80
2023-04-27T20:32:53.948Z,31.60
2023-04-27T20:39:02.744Z,36.40
2023-04-27T20:45:07.048Z,49.20
2023-04-27T20:48:08.733Z,50.90
2023-04-27T20:54:12.121Z,41.40
2023-04-27T20:57:14.080Z,49.60
2023-04-27T21:00:16.369Z,82.70
2023-04-27T21:03:18.222Z,69.50
2023-04-27T21:06:22.269Z,67.10
2023-04-27T21:09:24.139Z,62.80
2023-04-27T21:15:27.568Z,55.60
2023-04-27T21:18:30.807Z,52.10
2023-04-27T21:21:32.734Z,53.30
2023-04-27T21:27:36.121Z,56.50
2023-04-27T21:30:37.820Z,53.50
2023-04-27T21:33:39.640Z,61.90
2023-04-27T21:36:41.237Z,54.80
2023-04-27T21:39:42.917Z,51.10
2023-04-27T21:42:44.547Z,58.90
2023-04-27T21:45:46.147Z,55.30
2023-04-27T21:51:49.513Z,53.10
2023-04-27T21:54:51.223Z,56.60
2023-04-27T21:57:52.913Z,51.70
2023-04-27T22:00:54.692Z,53.20
2023-04-27T22:07:18.308Z,53.90
2023-04-27T22:10:20.121Z,55.60
2023-04-27T22:16:23.341Z,56.50
2023-04-27T22:19:25.137Z,54.30
2023-04-27T22:25:28.520Z,48.70
2023-04-27T22:31:31.887Z,41.60
2023-04-27T22:34:33.907Z,46.30
2023-04-27T22:37:35.954Z,40.30
2023-04-27T22:43:39.573Z,48.40
2023-04-27T22:49:44.505Z,42.00
2023-04-27T22:52:46.248Z,43.80
2023-04-27T22:55:48.292Z,43.00
2023-04-27T22:58:49.894Z,47.90
2023-04-27T23:01:51.960Z,43.20
2023-04-27T23:04:53.563Z,52.60
2023-04-27T23:10:57.012Z,52.80
2023-04-27T23:17:00.504Z,48.20
2023-04-27T23:23:05.871Z,42.40
2023-04-27T23:26:14.384Z,42.70
2023-04-27T23:29:16.180Z,38.60
2023-04-27T23:35:19.754Z,35.30
2023-04-27T23:41:22.990Z,44.30
2023-04-27T23:44:24.641Z,45.40
2023-04-27T23:47:26.303Z,54.20
2023-04-27T23:50:27.921Z,42.60
2023-04-27T23:53:30.235Z,36.20
2023-04-27T23:56:31.946Z,48.20
2023-04-27T23:59:34.676Z,47.70
